createdAt,value
2024-05-09T00:01:29.442Z,11.13
2024-05-09T00:03:31.506Z,11.14
2024-05-09T00:05:33.503Z,11.09
2024-05-09T00:07:35.878Z,11.01
2024-05-09T00:09:37.990Z,11.07
2024-05-09T00:11:39.998Z,10.97
2024-05-09T00:13:41.938Z,10.86
2024-05-09T00:15:43.774Z,10.72
2024-05-09T00:17:45.878Z,10.49
2024-05-09T00:19:48.488Z,10.36
2024-05-09T00:21:50.571Z,10.42
2024-05-09T00:23:52.291Z,10.26
2024-05-09T00:25:54.085Z,10.10
2024-05-09T00:27:55.849Z,9.99
2024-05-09T00:29:57.570Z,9.85
2024-05-09T00:31:59.445Z,9.86
2024-05-09T00:34:01.758Z,9.99
2024-05-09T00:36:03.837Z,9.85
2024-05-09T00:38:05.680Z,9.89
2024-05-09T00:40:15.050Z,10.06
2024-05-09T00:42:24.139Z,10.12
2024-05-09T00:44:26.084Z,10.16
2024-05-09T00:46:28.008Z,10.24
2024-05-09T00:48:30.143Z,10.18
2024-05-09T00:50:38.014Z,10.15
2024-05-09T00:52:40.812Z,10.19
2024-05-09T00:54:42.665Z,10.22
2024-05-09T00:56:44.784Z,10.23
2024-05-09T00:58:48.359Z,10.32
2024-05-09T01:00:51.084Z,10.23
2024-05-09T01:02:53.069Z,10.32
2024-05-09T01:04:55.682Z,10.11
2024-05-09T01:06:57.787Z,9.89
2024-05-09T01:08:59.684Z,9.77
2024-05-09T01:11:01.816Z,9.67
2024-05-09T01:13:07.482Z,9.52
2024-05-09T01:15:09.450Z,9.58
2024-05-09T01:17:12.003Z,9.58
2024-05-09T01:19:28.845Z,9.63
2024-05-09T01:21:30.659Z,9.59
2024-05-09T01:23:32.668Z,9.52
2024-05-09T01:25:35.428Z,9.65
2024-05-09T01:27:37.232Z,9.67
2024-05-09T01:29:39.185Z,9.71
2024-05-09T01:31:41.027Z,9.68
2024-05-09T01:33:43.614Z,9.58
2024-05-09T01:35:45.565Z,9.84
2024-05-09T01:37:47.387Z,9.90
2024-05-09T01:39:49.311Z,9.82
2024-05-09T01:41:51.183Z,9.91
2024-05-09T01:43:53.058Z,9.81
2024-05-09T01:45:54.866Z,9.89
2024-05-09T01:47:56.774Z,9.70
2024-05-09T01:49:58.636Z,9.76
2024-05-09T01:52:00.432Z,9.85
2024-05-09T01:54:02.858Z,9.91
2024-05-09T01:56:04.875Z,9.98
2024-05-09T01:58:07.407Z,9.97
2024-05-09T02:00:10.395Z,9.96
2024-05-09T02:02:12.966Z,10.00
2024-05-09T02:04:14.922Z,10.09
2024-05-09T02:06:16.920Z,9.99
2024-05-09T02:08:20.850Z,10.12
2024-05-09T02:10:26.643Z,9.75
2024-05-09T02:12:34.021Z,9.67
2024-05-09T02:14:35.854Z,9.67
2024-05-09T02:16:37.672Z,9.59
2024-05-09T02:18:39.512Z,9.53
2024-05-09T02:20:42.399Z,9.48
2024-05-09T02:22:44.904Z,9.44
2024-05-09T02:24:47.166Z,9.45
2024-05-09T02:26:49.204Z,9.53
2024-05-09T02:28:51.180Z,9.50
2024-05-09T02:30:53.009Z,9.51
2024-05-09T02:32:54.823Z,9.60
2024-05-09T02:34:56.726Z,9.60
2024-05-09T02:36:58.499Z,9.70
2024-05-09T02:39:00.309Z,9.76
2024-05-09T02:41:02.131Z,9.66
2024-05-09T02:43:04.060Z,9.55
2024-05-09T02:45:06.244Z,9.52
2024-05-09T02:47:08.101Z,9.55
2024-05-09T02:49:10.134Z,9.48
2024-05-09T02:51:12.047Z,9.44
2024-05-09T02:53:14.758Z,9.43
2024-05-09T02:55:16.638Z,9.46
2024-05-09T02:57:18.363Z,9.51
2024-05-09T02:59:20.290Z,9.56
2024-05-09T03:01:22.121Z,9.45
2024-05-09T03:03:24.492Z,9.51
2024-05-09T03:05:26.483Z,9.50
2024-05-09T03:07:28.214Z,9.40
2024-05-09T03:09:29.934Z,9.32
2024-05-09T03:11:31.766Z,9.42
2024-05-09T03:13:33.703Z,9.40
2024-05-09T03:15:35.560Z,9.53
2024-05-09T03:17:40.295Z,9.42
2024-05-09T03:19:42.175Z,9.38
2024-05-09T03:21:43.898Z,9.23
2024-05-09T03:23:45.760Z,9.26
2024-05-09T03:25:47.929Z,9.26
2024-05-09T03:27:49.825Z,9.28
2024-05-09T03:29:51.701Z,9.30
2024-05-09T03:31:53.658Z,9.38
2024-05-09T03:33:55.550Z,9.48
2024-05-09T03:35:57.331Z,9.56
2024-05-09T03:37:59.079Z,9.51
2024-05-09T03:40:02.697Z,9.56
2024-05-09T03:42:04.907Z,9.67
2024-05-09T03:44:06.725Z,9.79
2024-05-09T03:46:08.470Z,9.71
2024-05-09T03:48:10.655Z,9.84
2024-05-09T03:50:18.522Z,9.57
2024-05-09T03:52:27.682Z,9.72
2024-05-09T03:54:29.430Z,9.96
2024-05-09T03:56:31.269Z,9.84
2024-05-09T03:58:33.082Z,10.03
2024-05-09T04:00:38.739Z,10.01
2024-05-09T04:02:43.325Z,9.94
2024-05-09T04:04:45.307Z,9.93
2024-05-09T04:06:47.382Z,9.93
2024-05-09T04:08:49.589Z,10.01
2024-05-09T04:10:51.554Z,10.23
2024-05-09T04:12:53.489Z,10.54
2024-05-09T04:14:55.257Z,10.62
2024-05-09T04:16:57.048Z,10.80
2024-05-09T04:18:58.841Z,10.86
2024-05-09T04:21:00.882Z,10.86
2024-05-09T04:23:02.753Z,10.96
2024-05-09T04:25:05.009Z,10.96
2024-05-09T04:27:06.844Z,10.90
2024-05-09T04:29:08.739Z,10.90
2024-05-09T04:31:10.500Z,11.07
2024-05-09T04:33:14.977Z,10.99
2024-05-09T04:35:20.441Z,11.08
2024-05-09T04:37:22.213Z,10.93
2024-05-09T04:39:24.214Z,10.93
2024-05-09T04:41:26.850Z,10.95
2024-05-09T04:43:28.651Z,11.17
2024-05-09T04:45:30.690Z,11.45
2024-05-09T04:47:32.791Z,11.66
2024-05-09T04:49:34.817Z,11.58
2024-05-09T04:51:36.629Z,11.52
2024-05-09T04:53:38.551Z,11.83
2024-05-09T04:55:40.763Z,11.72
2024-05-09T04:57:42.705Z,11.82
2024-05-09T04:59:44.573Z,11.81
2024-05-09T05:01:46.480Z,11.86
2024-05-09T05:03:48.590Z,12.09
2024-05-09T05:05:50.553Z,12.25
2024-05-09T05:07:52.360Z,12.23
2024-05-09T05:09:54.280Z,12.20
2024-05-09T05:11:56.096Z,12.12
2024-05-09T05:13:57.910Z,12.45
2024-05-09T05:15:59.971Z,12.52
2024-05-09T05:18:01.893Z,12.46
2024-05-09T05:20:05.761Z,12.65
2024-05-09T05:22:07.693Z,12.74
2024-05-09T05:24:09.448Z,12.81
2024-05-09T05:26:11.184Z,12.75
2024-05-09T05:28:13.413Z,13.00
2024-05-09T05:30:21.257Z,13.08
2024-05-09T05:32:27.250Z,13.08
2024-05-09T05:34:29.139Z,13.10
2024-05-09T05:36:30.863Z,13.23
2024-05-09T05:38:32.696Z,13.20
2024-05-09T05:40:37.253Z,13.36
2024-05-09T05:42:40.307Z,13.21
2024-05-09T05:44:42.148Z,13.28
2024-05-09T05:46:43.883Z,13.31
2024-05-09T05:48:45.862Z,13.32
2024-05-09T05:50:47.906Z,13.40
2024-05-09T05:52:49.817Z,13.27
2024-05-09T05:54:54.099Z,13.35
2024-05-09T05:56:55.944Z,13.52
2024-05-09T05:58:57.710Z,13.53
2024-05-09T06:00:59.454Z,13.45
2024-05-09T06:03:01.350Z,13.57
2024-05-09T06:05:03.496Z,13.54
2024-05-09T06:07:05.789Z,13.65
2024-05-09T06:09:07.613Z,13.84
2024-05-09T06:11:09.435Z,13.93
2024-05-09T06:13:14.470Z,13.77
2024-05-09T06:15:16.483Z,13.94
2024-05-09T06:17:18.411Z,14.00
2024-05-09T06:19:20.594Z,13.83
2024-05-09T06:21:22.645Z,14.00
2024-05-09T06:23:24.535Z,14.24
2024-05-09T06:25:26.965Z,14.30
2024-05-09T06:27:28.724Z,14.35
2024-05-09T06:29:30.696Z,14.49
2024-05-09T06:31:32.623Z,14.65
2024-05-09T06:33:34.750Z,14.80
2024-05-09T06:35:36.978Z,14.73
2024-05-09T06:37:38.951Z,14.78
2024-05-09T06:39:40.694Z,14.88
2024-05-09T06:41:42.591Z,14.94
2024-05-09T06:43:44.418Z,15.08
2024-05-09T06:45:50.590Z,14.97
2024-05-09T06:47:52.641Z,15.02
2024-05-09T06:49:54.771Z,15.13
2024-05-09T06:51:56.502Z,15.22
2024-05-09T06:53:58.233Z,15.22
2024-05-09T06:56:00.043Z,14.95
2024-05-09T06:58:01.867Z,14.91
2024-05-09T07:00:03.985Z,15.23
2024-05-09T07:02:06.873Z,15.38
2024-05-09T07:04:08.941Z,15.52
2024-05-09T07:06:10.903Z,15.42
2024-05-09T07:08:12.868Z,15.58
2024-05-09T07:10:21.641Z,15.65
2024-05-09T07:12:27.523Z,15.79
2024-05-09T07:14:29.567Z,15.83
2024-05-09T07:16:31.638Z,15.87
2024-05-09T07:18:33.570Z,15.92
2024-05-09T07:20:35.573Z,15.94
2024-05-09T07:22:37.451Z,15.90
2024-05-09T07:24:39.181Z,15.86
2024-05-09T07:26:41.046Z,15.96
2024-05-09T07:28:42.853Z,16.05
2024-05-09T07:30:45.464Z,16.02
2024-05-09T07:32:47.858Z,15.92
2024-05-09T07:34:50.221Z,16.09
2024-05-09T07:36:52.541Z,16.07
2024-05-09T07:38:54.295Z,15.98
2024-05-09T07:40:56.166Z,16.07
2024-05-09T07:42:57.885Z,16.15
2024-05-09T07:45:14.898Z,16.19
2024-05-09T07:48:32.085Z,16.26
2024-05-09T07:51:32.226Z,16.40
2024-05-09T07:54:09.980Z,16.71
2024-05-09T07:56:13.548Z,16.81
2024-05-09T07:58:15.698Z,16.26
2024-05-09T08:00:23.611Z,16.51
2024-05-09T08:02:29.186Z,16.44
2024-05-09T08:04:31.161Z,16.37
2024-05-09T08:06:33.552Z,16.38
2024-05-09T08:08:35.292Z,16.25
2024-05-09T08:10:37.159Z,16.35
2024-05-09T08:12:39.041Z,16.61
2024-05-09T08:14:40.937Z,16.35
2024-05-09T08:16:42.797Z,16.43
2024-05-09T08:18:44.726Z,16.46
2024-05-09T08:20:48.659Z,16.35
2024-05-09T08:22:50.408Z,16.30
2024-05-09T08:24:52.173Z,16.65
2024-05-09T08:26:53.958Z,16.83
2024-05-09T08:28:55.636Z,16.76
2024-05-09T08:30:57.556Z,16.94
2024-05-09T08:32:59.503Z,17.11
2024-05-09T08:35:01.331Z,17.08
2024-05-09T08:37:10.182Z,16.98
2024-05-09T08:39:18.085Z,17.14
2024-05-09T08:41:19.824Z,17.37
2024-05-09T08:43:25.095Z,17.52
2024-05-09T08:45:27.508Z,17.47
2024-05-09T08:47:31.417Z,17.40
2024-05-09T08:49:34.131Z,17.41
2024-05-09T08:51:35.896Z,17.70
2024-05-09T08:53:37.748Z,17.65
2024-05-09T08:55:43.080Z,17.70
2024-05-09T08:57:46.570Z,17.84
2024-05-09T08:59:51.792Z,17.96
2024-05-09T09:01:54.746Z,17.97
2024-05-09T09:04:01.936Z,17.96
2024-05-09T09:06:03.951Z,18.07
2024-05-09T09:08:09.047Z,18.06
2024-05-09T09:10:17.583Z,18.07
2024-05-09T09:12:22.790Z,18.20
2024-05-09T09:14:24.500Z,18.18
2024-05-09T09:16:36.615Z,18.26
2024-05-09T09:18:38.888Z,18.30
2024-05-09T09:20:40.823Z,18.36
2024-05-09T09:22:42.576Z,18.29
2024-05-09T09:24:44.383Z,18.28
2024-05-09T09:26:46.227Z,18.20
2024-05-09T09:28:48.128Z,17.91
2024-05-09T09:30:49.973Z,18.10
2024-05-09T09:32:51.944Z,18.11
2024-05-09T09:34:53.966Z,18.12
2024-05-09T09:37:05.908Z,18.24
2024-05-09T09:39:09.699Z,17.92
2024-05-09T09:41:12.520Z,18.08
2024-05-09T09:43:19.411Z,18.42
2024-05-09T09:45:21.407Z,18.46
2024-05-09T09:47:27.201Z,18.65
2024-05-09T09:49:36.952Z,18.78
2024-05-09T09:51:43.672Z,18.81
2024-05-09T09:53:47.555Z,18.93
2024-05-09T09:55:51.299Z,18.67
2024-05-09T09:57:55.318Z,18.86
2024-05-09T09:59:57.811Z,18.97
2024-05-09T10:01:59.725Z,19.03
2024-05-09T10:04:03.988Z,19.19
2024-05-09T10:06:07.679Z,19.22
2024-05-09T10:08:10.740Z,19.20
2024-05-09T10:10:16.244Z,19.30
2024-05-09T10:12:20.797Z,19.23
2024-05-09T10:14:22.889Z,18.71
2024-05-09T10:16:24.926Z,18.81
2024-05-09T10:18:36.516Z,18.82
2024-05-09T10:20:45.420Z,18.98
2024-05-09T10:22:50.881Z,19.12
2024-05-09T10:24:54.206Z,19.23
2024-05-09T10:26:56.302Z,19.38
2024-05-09T10:28:58.812Z,19.42
2024-05-09T10:31:15.232Z,19.54
2024-05-09T10:33:20.127Z,19.67
2024-05-09T10:35:22.773Z,19.79
2024-05-09T10:37:27.065Z,19.81
2024-05-09T10:39:35.374Z,19.64
2024-05-09T10:41:38.271Z,19.50
2024-05-09T10:43:41.150Z,19.27
2024-05-09T10:45:43.136Z,19.36
2024-05-09T10:47:45.892Z,19.46
2024-05-09T10:49:49.134Z,19.44
2024-05-09T10:51:52.096Z,19.33
2024-05-09T10:53:54.166Z,19.60
2024-05-09T10:56:00.313Z,19.76
2024-05-09T10:58:02.117Z,19.72
2024-05-09T11:00:06.332Z,19.89
2024-05-09T11:02:10.914Z,20.08
2024-05-09T11:04:14.269Z,20.17
2024-05-09T11:06:17.954Z,20.15
2024-05-09T11:08:23.939Z,19.86
2024-05-09T11:10:33.387Z,20.16
2024-05-09T11:12:36.214Z,20.27
2024-05-09T11:14:38.192Z,20.43
2024-05-09T11:16:40.144Z,20.43
2024-05-09T11:18:42.172Z,20.55
2024-05-09T11:20:44.307Z,20.64
2024-05-09T11:22:46.538Z,20.70
2024-05-09T11:24:49.133Z,20.86
2024-05-09T11:26:51.213Z,19.86
2024-05-09T11:28:53.094Z,19.51
2024-05-09T11:31:08.838Z,20.10
2024-05-09T11:33:12.756Z,20.47
2024-05-09T11:35:14.683Z,20.83
2024-05-09T11:37:16.761Z,20.87
2024-05-09T11:39:18.752Z,20.43
2024-05-09T11:41:20.556Z,19.25
2024-05-09T11:43:22.459Z,19.27
2024-05-09T11:45:25.376Z,18.87
2024-05-09T11:47:27.585Z,18.93
2024-05-09T11:49:33.746Z,19.40
2024-05-09T11:51:35.879Z,19.53
2024-05-09T11:53:37.743Z,19.54
2024-05-09T11:55:39.552Z,19.67
2024-05-09T11:57:41.421Z,20.01
2024-05-09T11:59:43.433Z,20.19
2024-05-09T12:01:45.526Z,20.17
2024-05-09T12:03:49.685Z,19.52
2024-05-09T12:05:51.903Z,19.38
2024-05-09T12:07:54.973Z,19.93
2024-05-09T12:09:56.762Z,19.23
2024-05-09T12:11:58.774Z,19.46
2024-05-09T12:14:00.547Z,19.74
2024-05-09T12:16:02.572Z,19.42
2024-05-09T12:18:05.322Z,19.54
2024-05-09T12:20:14.275Z,19.93
2024-05-09T12:22:22.896Z,19.74
2024-05-09T12:24:25.284Z,19.20
2024-05-09T12:26:27.768Z,18.79
2024-05-09T12:28:29.666Z,19.25
2024-05-09T12:30:36.988Z,19.75
2024-05-09T12:32:41.579Z,20.11
2024-05-09T12:34:43.638Z,20.23
2024-05-09T12:36:45.535Z,20.53
2024-05-09T12:38:49.999Z,20.70
2024-05-09T12:40:52.033Z,20.90
2024-05-09T12:42:54.125Z,19.88
2024-05-09T12:44:56.002Z,19.74
2024-05-09T12:46:57.765Z,19.88
2024-05-09T12:49:00.282Z,19.92
2024-05-09T12:51:02.307Z,20.02
2024-05-09T12:53:05.201Z,19.75
2024-05-09T12:55:07.418Z,19.25
2024-05-09T12:57:09.567Z,18.96
2024-05-09T12:59:11.592Z,18.89
2024-05-09T13:01:13.403Z,19.56
2024-05-09T13:03:15.610Z,19.86
2024-05-09T13:05:17.685Z,20.12
2024-05-09T13:07:19.835Z,19.81
2024-05-09T13:09:22.010Z,19.20
2024-05-09T13:11:23.992Z,19.68
2024-05-09T13:13:26.783Z,19.67
2024-05-09T13:15:30.247Z,20.16
2024-05-09T13:17:33.561Z,20.25
2024-05-09T13:19:35.448Z,20.55
2024-05-09T13:21:37.193Z,20.78
2024-05-09T13:23:39.004Z,21.03
2024-05-09T13:25:40.924Z,21.21
2024-05-09T13:27:43.031Z,21.46
2024-05-09T13:29:44.838Z,21.79
2024-05-09T13:31:46.703Z,21.96
2024-05-09T13:33:48.933Z,21.80
2024-05-09T13:35:51.266Z,22.01
2024-05-09T13:37:53.391Z,22.24
2024-05-09T13:39:55.277Z,22.42
2024-05-09T13:41:57.030Z,21.68
2024-05-09T13:43:58.936Z,21.97
2024-05-09T13:46:00.691Z,22.32
2024-05-09T13:48:04.108Z,22.59
2024-05-09T13:50:09.074Z,22.78
2024-05-09T13:52:13.382Z,22.51
2024-05-09T13:54:16.716Z,22.76
2024-05-09T13:56:19.799Z,22.88
2024-05-09T13:58:23.765Z,23.01
2024-05-09T14:00:38.029Z,22.95
2024-05-09T14:02:47.024Z,23.03
2024-05-09T14:04:49.364Z,22.68
2024-05-09T14:06:51.552Z,23.03
2024-05-09T14:08:53.391Z,22.77
2024-05-09T14:10:56.245Z,22.95
2024-05-09T14:12:58.166Z,23.04
2024-05-09T14:15:00.106Z,23.45
2024-05-09T14:17:02.084Z,23.69
2024-05-09T14:19:04.214Z,23.89
2024-05-09T14:21:06.043Z,24.15
2024-05-09T14:23:07.905Z,24.25
2024-05-09T14:25:10.389Z,24.63
2024-05-09T14:27:12.274Z,24.73
2024-05-09T14:29:14.030Z,24.70
2024-05-09T14:31:15.874Z,24.96
2024-05-09T14:33:23.536Z,25.25
2024-05-09T14:35:25.391Z,25.42
2024-05-09T14:37:27.226Z,25.59
2024-05-09T14:39:29.117Z,25.68
2024-05-09T14:41:31.945Z,25.53
2024-05-09T14:43:33.825Z,25.50
2024-05-09T14:45:35.924Z,25.57
2024-05-09T14:47:38.046Z,25.63
2024-05-09T14:49:40.029Z,25.81
2024-05-09T14:51:48.443Z,25.47
2024-05-09T14:53:50.262Z,25.34
2024-05-09T14:55:52.266Z,25.39
2024-05-09T14:57:54.439Z,25.32
2024-05-09T14:59:56.336Z,25.27
2024-05-09T15:01:58.409Z,24.96
2024-05-09T15:04:00.440Z,25.09
2024-05-09T15:06:02.713Z,25.25
2024-05-09T15:08:08.066Z,25.39
2024-05-09T15:10:16.600Z,25.25
2024-05-09T15:12:25.124Z,25.29
2024-05-09T15:14:27.283Z,25.32
2024-05-09T15:16:29.056Z,25.25
2024-05-09T15:18:31.060Z,25.33
2024-05-09T15:20:36.188Z,25.21
2024-05-09T15:22:39.091Z,25.19
2024-05-09T15:24:42.123Z,25.17
2024-05-09T15:26:44.132Z,25.13
2024-05-09T15:30:48.434Z,25.09
2024-05-09T15:32:50.469Z,24.99
2024-05-09T15:34:52.449Z,24.82
2024-05-09T15:36:54.254Z,24.72
2024-05-09T15:38:56.116Z,24.71
2024-05-09T15:40:57.997Z,24.40
2024-05-09T15:42:59.953Z,24.10
2024-05-09T15:45:02.016Z,24.31
2024-05-09T15:47:04.364Z,24.33
2024-05-09T15:49:06.383Z,24.21
2024-05-09T15:51:09.516Z,24.34
2024-05-09T15:53:13.681Z,24.31
2024-05-09T15:55:15.769Z,24.44
2024-05-09T15:57:17.709Z,24.41
2024-05-09T15:59:20.467Z,24.66
2024-05-09T16:01:22.363Z,24.79
2024-05-09T16:03:24.356Z,24.64
2024-05-09T16:05:26.917Z,24.30
2024-05-09T16:07:28.914Z,24.06
2024-05-09T16:09:30.770Z,23.78
2024-05-09T16:11:32.582Z,23.81
2024-05-09T16:13:34.384Z,23.82
2024-05-09T16:15:36.281Z,23.57
2024-05-09T16:17:38.279Z,23.39
2024-05-09T16:19:40.612Z,23.18
2024-05-09T16:21:42.579Z,23.18
2024-05-09T16:23:44.355Z,23.16
2024-05-09T16:25:48.481Z,23.01
2024-05-09T16:27:51.722Z,23.04
2024-05-09T16:29:53.719Z,23.23
2024-05-09T16:31:55.462Z,23.18
2024-05-09T16:33:57.636Z,23.12
2024-05-09T16:35:59.665Z,23.08
2024-05-09T16:38:02.734Z,22.93
2024-05-09T16:40:07.497Z,23.03
2024-05-09T16:42:09.559Z,23.33
2024-05-09T16:44:11.339Z,24.22
2024-05-09T16:46:13.281Z,24.81
2024-05-09T16:48:15.149Z,24.80
2024-05-09T16:50:25.740Z,24.64
2024-05-09T16:52:30.900Z,24.50
2024-05-09T16:54:32.714Z,24.24
2024-05-09T16:56:34.578Z,24.09
2024-05-09T16:58:36.472Z,23.96
2024-05-09T17:00:42.360Z,23.71
2024-05-09T17:02:45.785Z,23.76
2024-05-09T17:04:48.112Z,24.51
2024-05-09T17:06:50.085Z,25.07
2024-05-09T17:08:52.305Z,25.47
2024-05-09T17:10:55.950Z,25.72
2024-05-09T17:12:57.997Z,26.20
2024-05-09T17:14:59.817Z,26.68
2024-05-09T17:17:01.691Z,26.68
2024-05-09T17:19:04.760Z,26.62
2024-05-09T17:21:06.578Z,26.50
2024-05-09T17:23:13.434Z,26.96
2024-05-09T17:25:16.184Z,27.15
2024-05-09T17:27:18.085Z,27.39
2024-05-09T17:29:21.638Z,26.99
2024-05-09T17:31:23.643Z,26.94
2024-05-09T17:33:25.461Z,26.56
2024-05-09T17:35:27.352Z,25.74
2024-05-09T17:37:31.194Z,25.33
2024-05-09T17:39:33.352Z,24.78
2024-05-09T17:41:35.231Z,23.97
2024-05-09T17:43:37.074Z,23.55
2024-05-09T17:45:40.778Z,23.19
2024-05-09T17:47:43.509Z,22.89
2024-05-09T17:49:45.341Z,22.50
2024-05-09T17:51:54.133Z,22.15
2024-05-09T17:53:55.864Z,21.78
2024-05-09T17:55:59.327Z,21.46
2024-05-09T17:58:01.437Z,20.95
2024-05-09T18:00:07.026Z,20.70
2024-05-09T18:02:13.022Z,20.43
2024-05-09T18:04:14.951Z,20.19
2024-05-09T18:06:16.914Z,19.94
2024-05-09T18:08:18.726Z,19.78
2024-05-09T18:10:25.906Z,19.55
2024-05-09T18:12:34.667Z,19.29
2024-05-09T18:14:36.680Z,19.11
2024-05-09T18:16:38.660Z,18.88
2024-05-09T18:18:41.141Z,18.70
2024-05-09T18:20:45.604Z,18.51
2024-05-09T18:22:48.946Z,18.32
2024-05-09T18:24:50.912Z,18.14
2024-05-09T18:26:52.706Z,17.97
2024-05-09T18:28:54.624Z,17.81
2024-05-09T18:30:56.494Z,17.59
2024-05-09T18:32:58.376Z,17.46
2024-05-09T18:35:00.326Z,17.28
2024-05-09T18:37:04.447Z,17.13
2024-05-09T18:39:06.844Z,17.02
2024-05-09T18:41:08.654Z,16.90
2024-05-09T18:43:10.653Z,16.76
2024-05-09T18:45:13.134Z,16.67
2024-05-09T18:47:18.362Z,16.56
2024-05-09T18:49:21.691Z,16.40
2024-05-09T18:51:23.754Z,16.22
2024-05-09T18:53:25.528Z,16.17
2024-05-09T18:55:27.316Z,16.09
2024-05-09T18:57:29.158Z,15.98
2024-05-09T18:59:31.128Z,15.88
2024-05-09T19:01:33.136Z,15.87
2024-05-09T19:03:35.504Z,15.70
2024-05-09T19:05:37.608Z,15.66
2024-05-09T19:07:39.634Z,15.53
2024-05-09T19:09:41.460Z,15.48
2024-05-09T19:11:43.472Z,15.39
2024-05-09T19:13:45.285Z,15.31
2024-05-09T19:15:48.507Z,15.17
2024-05-09T19:17:50.497Z,15.11
2024-05-09T19:19:52.634Z,15.10
2024-05-09T19:21:57.679Z,15.03
2024-05-09T19:23:59.429Z,14.95
2024-05-09T19:26:01.228Z,14.87
2024-05-09T19:28:03.719Z,14.79
2024-05-09T19:30:13.901Z,14.82
2024-05-09T19:32:19.736Z,14.79
2024-05-09T19:34:21.683Z,14.72
2024-05-09T19:36:23.642Z,14.53
2024-05-09T19:38:25.670Z,14.43
2024-05-09T19:40:31.872Z,14.37
2024-05-09T19:42:35.423Z,14.33
2024-05-09T19:44:37.239Z,14.28
2024-05-09T19:46:39.070Z,14.18
2024-05-09T19:48:41.157Z,14.09
2024-05-09T19:50:44.756Z,14.14
2024-05-09T19:52:48.197Z,14.13
2024-05-09T19:54:50.154Z,14.11
2024-05-09T19:56:52.073Z,14.07
2024-05-09T19:58:55.198Z,14.00
2024-05-09T20:00:57.381Z,13.84
2024-05-09T20:02:59.200Z,13.68
2024-05-09T20:05:02.308Z,13.71
2024-05-09T20:07:04.588Z,13.74
2024-05-09T20:09:06.626Z,13.72
2024-05-09T20:11:08.373Z,13.72
2024-05-09T20:13:10.541Z,13.81
2024-05-09T20:15:12.332Z,13.80
2024-05-09T20:17:14.103Z,13.72
2024-05-09T20:19:15.976Z,13.60
2024-05-09T20:21:17.943Z,13.52
2024-05-09T20:23:20.049Z,13.48
2024-05-09T20:25:21.862Z,13.45
2024-05-09T20:27:24.133Z,13.40
2024-05-09T20:29:25.944Z,13.45
2024-05-09T20:31:27.743Z,13.38
2024-05-09T20:33:30.258Z,13.32
2024-05-09T20:35:32.932Z,13.28
2024-05-09T20:37:35.121Z,13.24
2024-05-09T20:39:36.911Z,13.16
2024-05-09T20:41:44.604Z,13.11
2024-05-09T20:43:46.635Z,13.10
2024-05-09T20:45:48.721Z,13.05
2024-05-09T20:47:50.608Z,13.14
2024-05-09T20:49:52.599Z,13.09
2024-05-09T20:51:54.367Z,13.12
2024-05-09T20:53:56.231Z,13.11
2024-05-09T20:55:58.009Z,13.13
2024-05-09T20:57:59.860Z,13.13
2024-05-09T21:00:01.635Z,13.11
2024-05-09T21:02:03.826Z,13.04
2024-05-09T21:04:05.947Z,13.02
2024-05-09T21:06:07.877Z,12.96
2024-05-09T21:08:09.727Z,12.88
2024-05-09T21:10:15.892Z,12.81
2024-05-09T21:12:24.288Z,12.77
2024-05-09T21:14:26.102Z,12.78
2024-05-09T21:16:27.992Z,12.70
2024-05-09T21:18:29.830Z,12.63
2024-05-09T21:20:33.465Z,12.56
2024-05-09T21:22:35.530Z,12.52
2024-05-09T21:24:37.351Z,12.46
2024-05-09T21:26:39.179Z,12.32
2024-05-09T21:28:40.910Z,12.18
2024-05-09T21:30:46.770Z,12.17
2024-05-09T21:32:49.966Z,12.18
2024-05-09T21:34:51.799Z,12.17
2024-05-09T21:36:53.708Z,12.12
2024-05-09T21:38:55.460Z,12.03
2024-05-09T21:40:57.874Z,11.93
2024-05-09T21:42:59.943Z,11.87
2024-05-09T21:45:01.739Z,11.86
2024-05-09T21:47:03.836Z,11.78
2024-05-09T21:49:05.643Z,11.80
2024-05-09T21:51:16.510Z,11.75
2024-05-09T21:53:18.662Z,11.71
2024-05-09T21:55:20.446Z,11.71
2024-05-09T21:57:22.419Z,11.74
2024-05-09T21:59:24.244Z,11.72
2024-05-09T22:01:26.118Z,11.70
2024-05-09T22:03:28.269Z,11.70
2024-05-09T22:05:30.406Z,11.64
2024-05-09T22:07:32.243Z,11.60
2024-05-09T22:09:34.047Z,11.55
2024-05-09T22:11:36.699Z,11.54
2024-05-09T22:13:38.538Z,11.54
2024-05-09T22:15:40.916Z,11.46
2024-05-09T22:17:43.115Z,11.43
2024-05-09T22:19:49.585Z,11.49
2024-05-09T22:21:51.647Z,11.49
2024-05-09T22:23:53.438Z,11.41
2024-05-09T22:25:55.225Z,11.41
2024-05-09T22:27:57.173Z,11.43
2024-05-09T22:29:59.014Z,11.49
2024-05-09T22:32:00.785Z,11.51
2024-05-09T22:34:02.794Z,11.47
2024-05-09T22:36:07.366Z,11.43
2024-05-09T22:38:09.288Z,11.39
2024-05-09T22:40:15.110Z,11.38
2024-05-09T22:42:22.130Z,11.30
2024-05-09T22:44:23.913Z,11.30
2024-05-09T22:46:25.800Z,11.20
2024-05-09T22:48:27.866Z,11.18
2024-05-09T22:50:33.279Z,11.20
2024-05-09T22:52:37.312Z,11.21
2024-05-09T22:54:39.130Z,11.15
2024-05-09T22:56:40.931Z,11.15
2024-05-09T22:58:42.680Z,11.18
2024-05-09T23:00:44.631Z,11.17
2024-05-09T23:02:46.545Z,11.13
2024-05-09T23:04:48.622Z,11.11
2024-05-09T23:06:51.836Z,11.07
2024-05-09T23:08:53.621Z,11.01
2024-05-09T23:10:55.682Z,10.95
2024-05-09T23:12:57.719Z,10.87
2024-05-09T23:14:59.718Z,10.82
2024-05-09T23:17:01.533Z,10.86
2024-05-09T23:19:03.685Z,10.95
2024-05-09T23:21:05.843Z,10.96
2024-05-09T23:23:08.608Z,11.02
2024-05-09T23:25:10.697Z,11.02
2024-05-09T23:27:12.645Z,10.97
2024-05-09T23:29:14.482Z,10.89
2024-05-09T23:31:16.243Z,10.91
2024-05-09T23:33:18.254Z,10.89
2024-05-09T23:35:20.065Z,10.84
2024-05-09T23:37:22.019Z,10.83
2024-05-09T23:39:23.853Z,10.82
2024-05-09T23:41:25.785Z,10.83
2024-05-09T23:43:27.739Z,10.82
2024-05-09T23:45:29.599Z,10.83
2024-05-09T23:47:31.362Z,10.82
2024-05-09T23:49:33.235Z,10.84
2024-05-09T23:51:35.284Z,10.75
2024-05-09T23:53:37.126Z,10.71
2024-05-09T23:55:39.169Z,10.67
2024-05-09T23:57:41.257Z,10.75
2024-05-09T23:59:43.000Z,10.66
